sensor_id;sensor_type;location;lat;lon;timestamp;P1;durP1;ratioP1;P2;durP2;ratioP2
52730;SDS011;38624;53.242;6.974;2022-11-20T00:00:53;14.27;;;9.17;;
52730;SDS011;38624;53.242;6.974;2022-11-20T00:03:19;16.77;;;10.13;;
52730;SDS011;38624;53.242;6.974;2022-11-20T00:05:44;18.30;;;12.10;;
52730;SDS011;38624;53.242;6.974;2022-11-20T00:08:10;21.13;;;11.87;;
52730;SDS011;38624;53.242;6.974;2022-11-20T00:10:37;18.85;;;11.00;;
52730;SDS011;38624;53.242;6.974;2022-11-20T00:13:03;20.50;;;12.77;;
52730;SDS011;38624;53.242;6.974;2022-11-20T00:15:30;19.30;;;12.18;;
52730;SDS011;38624;53.242;6.974;2022-11-20T00:17:56;19.80;;;11.00;;
52730;SDS011;38624;53.242;6.974;2022-11-20T00:20:21;19.03;;;11.53;;
52730;SDS011;38624;53.242;6.974;2022-11-20T00:22:47;18.87;;;11.67;;
52730;SDS011;38624;53.242;6.974;2022-11-20T00:25:13;18.60;;;11.73;;
52730;SDS011;38624;53.242;6.974;2022-11-20T00:27:38;20.27;;;11.87;;
52730;SDS011;38624;53.242;6.974;2022-11-20T00:30:04;17.87;;;11.97;;
52730;SDS011;38624;53.242;6.974;2022-11-20T00:32:31;18.63;;;11.10;;
52730;SDS011;38624;53.242;6.974;2022-11-20T00:34:57;18.43;;;11.83;;
52730;SDS011;38624;53.242;6.974;2022-11-20T00:37:22;16.93;;;11.47;;
52730;SDS011;38624;53.242;6.974;2022-11-20T00:39:48;19.57;;;11.40;;
52730;SDS011;38624;53.242;6.974;2022-11-20T00:42:14;18.33;;;11.27;;
52730;SDS011;38624;53.242;6.974;2022-11-20T00:44:39;18.50;;;10.63;;
52730;SDS011;38624;53.242;6.974;2022-11-20T00:47:05;17.07;;;10.97;;
52730;SDS011;38624;53.242;6.974;2022-11-20T00:49:31;20.03;;;12.13;;
52730;SDS011;38624;53.242;6.974;2022-11-20T00:51:56;20.47;;;11.50;;
52730;SDS011;38624;53.242;6.974;2022-11-20T00:54:22;16.73;;;10.37;;
52730;SDS011;38624;53.242;6.974;2022-11-20T00:56:47;14.43;;;8.37;;
52730;SDS011;38624;53.242;6.974;2022-11-20T00:59:13;19.30;;;10.87;;
52730;SDS011;38624;53.242;6.974;2022-11-20T01:01:39;17.13;;;11.07;;
52730;SDS011;38624;53.242;6.974;2022-11-20T01:04:05;19.83;;;11.10;;
52730;SDS011;38624;53.242;6.974;2022-11-20T01:06:32;17.67;;;10.63;;
52730;SDS011;38624;53.242;6.974;2022-11-20T01:09:00;19.97;;;11.80;;
52730;SDS011;38624;53.242;6.974;2022-11-20T01:11:30;18.03;;;11.80;;
52730;SDS011;38624;53.242;6.974;2022-11-20T01:13:59;15.77;;;10.13;;
52730;SDS011;38624;53.242;6.974;2022-11-20T01:16:33;17.70;;;11.30;;
52730;SDS011;38624;53.242;6.974;2022-11-20T01:19:05;19.33;;;11.67;;
52730;SDS011;38624;53.242;6.974;2022-11-20T01:21:34;18.37;;;11.23;;
52730;SDS011;38624;53.242;6.974;2022-11-20T01:24:02;16.73;;;10.23;;
52730;SDS011;38624;53.242;6.974;2022-11-20T01:26:30;17.40;;;10.60;;
52730;SDS011;38624;53.242;6.974;2022-11-20T01:28:58;16.27;;;10.37;;
52730;SDS011;38624;53.242;6.974;2022-11-20T01:31:35;19.02;;;11.68;;
52730;SDS011;38624;53.242;6.974;2022-11-20T01:34:05;16.98;;;11.32;;
52730;SDS011;38624;53.242;6.974;2022-11-20T01:36:34;16.53;;;10.20;;
52730;SDS011;38624;53.242;6.974;2022-11-20T01:39:03;16.60;;;10.90;;
52730;SDS011;38624;53.242;6.974;2022-11-20T01:41:31;18.27;;;10.80;;
52730;SDS011;38624;53.242;6.974;2022-11-20T01:44:18;16.73;;;10.83;;
52730;SDS011;38624;53.242;6.974;2022-11-20T01:46:54;17.63;;;10.73;;
52730;SDS011;38624;53.242;6.974;2022-11-20T01:49:30;17.60;;;10.77;;
52730;SDS011;38624;53.242;6.974;2022-11-20T01:52:07;17.57;;;11.13;;
52730;SDS011;38624;53.242;6.974;2022-11-20T01:54:55;20.47;;;12.10;;
52730;SDS011;38624;53.242;6.974;2022-11-20T01:57:25;19.00;;;11.68;;
52730;SDS011;38624;53.242;6.974;2022-11-20T01:59:57;18.17;;;11.03;;
52730;SDS011;38624;53.242;6.974;2022-11-20T02:02:28;21.83;;;11.53;;
52730;SDS011;38624;53.242;6.974;2022-11-20T02:04:55;17.33;;;11.03;;
52730;SDS011;38624;53.242;6.974;2022-11-20T02:07:25;17.77;;;10.53;;
52730;SDS011;38624;53.242;6.974;2022-11-20T02:09:52;16.42;;;9.88;;
52730;SDS011;38624;53.242;6.974;2022-11-20T02:12:18;16.93;;;10.63;;
52730;SDS011;38624;53.242;6.974;2022-11-20T02:15:03;16.80;;;10.73;;
52730;SDS011;38624;53.242;6.974;2022-11-20T02:17:30;17.30;;;10.57;;
52730;SDS011;38624;53.242;6.974;2022-11-20T02:19:55;18.77;;;11.07;;
52730;SDS011;38624;53.242;6.974;2022-11-20T02:22:24;18.63;;;11.43;;
52730;SDS011;38624;53.242;6.974;2022-11-20T02:25:00;17.80;;;10.40;;
52730;SDS011;38624;53.242;6.974;2022-11-20T02:29:55;15.53;;;9.60;;
52730;SDS011;38624;53.242;6.974;2022-11-20T02:32:25;18.57;;;10.73;;
52730;SDS011;38624;53.242;6.974;2022-11-20T02:34:51;17.38;;;11.13;;
52730;SDS011;38624;53.242;6.974;2022-11-20T02:37:17;17.43;;;10.87;;
52730;SDS011;38624;53.242;6.974;2022-11-20T02:39:45;16.40;;;10.10;;
52730;SDS011;38624;53.242;6.974;2022-11-20T02:42:11;16.93;;;10.70;;
52730;SDS011;38624;53.242;6.974;2022-11-20T02:44:37;18.43;;;11.97;;
52730;SDS011;38624;53.242;6.974;2022-11-20T02:47:03;19.10;;;11.23;;
52730;SDS011;38624;53.242;6.974;2022-11-20T02:49:28;19.23;;;10.67;;
52730;SDS011;38624;53.242;6.974;2022-11-20T02:51:54;16.87;;;11.23;;
52730;SDS011;38624;53.242;6.974;2022-11-20T02:54:20;16.60;;;10.27;;
52730;SDS011;38624;53.242;6.974;2022-11-20T02:56:46;16.67;;;11.00;;
52730;SDS011;38624;53.242;6.974;2022-11-20T02:59:11;19.37;;;11.33;;
52730;SDS011;38624;53.242;6.974;2022-11-20T03:01:37;16.77;;;10.63;;
52730;SDS011;38624;53.242;6.974;2022-11-20T03:04:03;21.25;;;10.45;;
52730;SDS011;38624;53.242;6.974;2022-11-20T03:06:29;16.63;;;10.87;;
52730;SDS011;38624;53.242;6.974;2022-11-20T03:08:55;16.97;;;10.67;;
52730;SDS011;38624;53.242;6.974;2022-11-20T03:11:20;19.77;;;11.30;;
52730;SDS011;38624;53.242;6.974;2022-11-20T03:13:46;19.43;;;11.83;;
52730;SDS011;38624;53.242;6.974;2022-11-20T03:16:16;17.53;;;11.23;;
52730;SDS011;38624;53.242;6.974;2022-11-20T03:18:44;19.43;;;11.60;;
52730;SDS011;38624;53.242;6.974;2022-11-20T03:21:10;17.70;;;11.70;;
52730;SDS011;38624;53.242;6.974;2022-11-20T03:23:37;19.45;;;11.57;;
52730;SDS011;38624;53.242;6.974;2022-11-20T03:26:14;17.15;;;10.98;;
52730;SDS011;38624;53.242;6.974;2022-11-20T03:28:51;17.07;;;11.17;;
52730;SDS011;38624;53.242;6.974;2022-11-20T03:31:20;16.47;;;10.77;;
52730;SDS011;38624;53.242;6.974;2022-11-20T03:33:47;17.60;;;11.30;;
52730;SDS011;38624;53.242;6.974;2022-11-20T03:36:14;16.70;;;10.27;;
52730;SDS011;38624;53.242;6.974;2022-11-20T03:41:07;17.00;;;10.07;;
52730;SDS011;38624;53.242;6.974;2022-11-20T03:43:35;13.77;;;8.83;;
52730;SDS011;38624;53.242;6.974;2022-11-20T03:46:01;15.90;;;11.00;;
52730;SDS011;38624;53.242;6.974;2022-11-20T03:48:27;17.27;;;10.82;;
52730;SDS011;38624;53.242;6.974;2022-11-20T03:51:05;14.90;;;9.63;;
52730;SDS011;38624;53.242;6.974;2022-11-20T03:53:39;14.20;;;9.27;;
52730;SDS011;38624;53.242;6.974;2022-11-20T03:56:06;15.98;;;10.10;;
52730;SDS011;38624;53.242;6.974;2022-11-20T03:58:33;15.25;;;9.88;;
52730;SDS011;38624;53.242;6.974;2022-11-20T04:03:53;15.27;;;10.20;;
52730;SDS011;38624;53.242;6.974;2022-11-20T04:06:21;14.10;;;9.47;;
52730;SDS011;38624;53.242;6.974;2022-11-20T04:08:59;16.50;;;9.60;;
52730;SDS011;38624;53.242;6.974;2022-11-20T04:11:26;15.70;;;10.13;;
52730;SDS011;38624;53.242;6.974;2022-11-20T04:13:57;15.57;;;10.10;;
52730;SDS011;38624;53.242;6.974;2022-11-20T04:16:24;15.63;;;10.03;;
52730;SDS011;38624;53.242;6.974;2022-11-20T04:18:51;16.95;;;10.45;;
52730;SDS011;38624;53.242;6.974;2022-11-20T04:21:18;17.57;;;10.70;;
52730;SDS011;38624;53.242;6.974;2022-11-20T04:23:44;16.80;;;10.23;;
52730;SDS011;38624;53.242;6.974;2022-11-20T04:26:10;15.10;;;9.80;;
52730;SDS011;38624;53.242;6.974;2022-11-20T04:28:38;14.23;;;9.57;;
52730;SDS011;38624;53.242;6.974;2022-11-20T04:31:05;16.27;;;10.23;;
52730;SDS011;38624;53.242;6.974;2022-11-20T04:33:40;16.07;;;10.37;;
52730;SDS011;38624;53.242;6.974;2022-11-20T04:36:06;15.63;;;10.77;;
52730;SDS011;38624;53.242;6.974;2022-11-20T04:38:37;16.77;;;10.70;;
52730;SDS011;38624;53.242;6.974;2022-11-20T04:41:04;17.20;;;10.90;;
52730;SDS011;38624;53.242;6.974;2022-11-20T04:43:31;19.40;;;10.57;;
52730;SDS011;38624;53.242;6.974;2022-11-20T04:45:58;16.27;;;10.45;;
52730;SDS011;38624;53.242;6.974;2022-11-20T04:48:25;16.48;;;10.45;;
52730;SDS011;38624;53.242;6.974;2022-11-20T04:50:52;16.83;;;10.33;;
52730;SDS011;38624;53.242;6.974;2022-11-20T04:53:18;15.93;;;9.95;;
52730;SDS011;38624;53.242;6.974;2022-11-20T04:55:45;17.10;;;10.53;;
52730;SDS011;38624;53.242;6.974;2022-11-20T04:58:11;20.10;;;10.87;;
52730;SDS011;38624;53.242;6.974;2022-11-20T05:00:37;17.73;;;11.07;;
52730;SDS011;38624;53.242;6.974;2022-11-20T05:03:03;17.27;;;10.50;;
52730;SDS011;38624;53.242;6.974;2022-11-20T05:05:29;15.87;;;9.70;;
52730;SDS011;38624;53.242;6.974;2022-11-20T05:07:58;15.53;;;10.53;;
52730;SDS011;38624;53.242;6.974;2022-11-20T05:10:24;16.10;;;10.40;;
52730;SDS011;38624;53.242;6.974;2022-11-20T05:12:50;15.77;;;10.82;;
52730;SDS011;38624;53.242;6.974;2022-11-20T05:15:16;17.83;;;10.30;;
52730;SDS011;38624;53.242;6.974;2022-11-20T05:17:49;15.00;;;10.10;;
52730;SDS011;38624;53.242;6.974;2022-11-20T05:20:15;15.97;;;10.23;;
52730;SDS011;38624;53.242;6.974;2022-11-20T05:22:41;16.93;;;10.93;;
52730;SDS011;38624;53.242;6.974;2022-11-20T05:25:07;19.00;;;10.50;;
52730;SDS011;38624;53.242;6.974;2022-11-20T05:27:33;16.73;;;10.73;;
52730;SDS011;38624;53.242;6.974;2022-11-20T05:29:59;14.10;;;9.80;;
52730;SDS011;38624;53.242;6.974;2022-11-20T05:32:25;17.00;;;9.77;;
52730;SDS011;38624;53.242;6.974;2022-11-20T05:34:51;16.23;;;9.97;;
52730;SDS011;38624;53.242;6.974;2022-11-20T05:37:17;15.75;;;10.13;;
52730;SDS011;38624;53.242;6.974;2022-11-20T05:39:43;14.73;;;9.53;;
52730;SDS011;38624;53.242;6.974;2022-11-20T05:42:08;16.13;;;10.37;;
52730;SDS011;38624;53.242;6.974;2022-11-20T05:44:53;14.90;;;10.00;;
52730;SDS011;38624;53.242;6.974;2022-11-20T05:47:18;15.80;;;10.20;;
52730;SDS011;38624;53.242;6.974;2022-11-20T05:49:44;14.43;;;9.60;;
52730;SDS011;38624;53.242;6.974;2022-11-20T05:52:10;15.07;;;9.80;;
52730;SDS011;38624;53.242;6.974;2022-11-20T05:54:35;16.00;;;10.20;;
52730;SDS011;38624;53.242;6.974;2022-11-20T05:57:01;14.87;;;10.17;;
52730;SDS011;38624;53.242;6.974;2022-11-20T05:59:27;15.80;;;9.47;;
52730;SDS011;38624;53.242;6.974;2022-11-20T06:01:52;15.43;;;9.97;;
52730;SDS011;38624;53.242;6.974;2022-11-20T06:04:18;15.97;;;9.80;;
52730;SDS011;38624;53.242;6.974;2022-11-20T06:06:43;14.47;;;9.67;;
52730;SDS011;38624;53.242;6.974;2022-11-20T06:09:09;15.63;;;9.33;;
52730;SDS011;38624;53.242;6.974;2022-11-20T06:11:35;13.83;;;9.13;;
52730;SDS011;38624;53.242;6.974;2022-11-20T06:14:00;13.80;;;9.30;;
52730;SDS011;38624;53.242;6.974;2022-11-20T06:16:26;15.07;;;9.63;;
52730;SDS011;38624;53.242;6.974;2022-11-20T06:18:52;15.00;;;9.67;;
52730;SDS011;38624;53.242;6.974;2022-11-20T06:21:18;17.27;;;9.87;;
52730;SDS011;38624;53.242;6.974;2022-11-20T06:23:45;13.63;;;9.17;;
52730;SDS011;38624;53.242;6.974;2022-11-20T06:26:13;14.55;;;9.77;;
52730;SDS011;38624;53.242;6.974;2022-11-20T06:28:41;15.23;;;9.67;;
52730;SDS011;38624;53.242;6.974;2022-11-20T06:31:06;14.83;;;9.40;;
52730;SDS011;38624;53.242;6.974;2022-11-20T06:33:35;16.87;;;10.83;;
52730;SDS011;38624;53.242;6.974;2022-11-20T06:36:02;16.55;;;9.77;;
52730;SDS011;38624;53.242;6.974;2022-11-20T06:38:28;15.48;;;9.70;;
52730;SDS011;38624;53.242;6.974;2022-11-20T06:40:55;16.67;;;9.90;;
52730;SDS011;38624;53.242;6.974;2022-11-20T06:43:21;15.77;;;10.18;;
52730;SDS011;38624;53.242;6.974;2022-11-20T06:45:51;18.70;;;11.00;;
52730;SDS011;38624;53.242;6.974;2022-11-20T06:48:21;14.50;;;9.87;;
52730;SDS011;38624;53.242;6.974;2022-11-20T06:50:48;13.52;;;9.55;;
52730;SDS011;38624;53.242;6.974;2022-11-20T06:53:14;15.20;;;10.07;;
52730;SDS011;38624;53.242;6.974;2022-11-20T06:55:43;15.80;;;11.23;;
52730;SDS011;38624;53.242;6.974;2022-11-20T06:58:10;14.97;;;9.90;;
52730;SDS011;38624;53.242;6.974;2022-11-20T07:00:36;15.37;;;9.63;;
52730;SDS011;38624;53.242;6.974;2022-11-20T07:03:05;13.40;;;9.00;;
52730;SDS011;38624;53.242;6.974;2022-11-20T07:05:32;14.47;;;9.40;;
52730;SDS011;38624;53.242;6.974;2022-11-20T07:07:58;14.88;;;9.88;;
52730;SDS011;38624;53.242;6.974;2022-11-20T07:10:24;15.47;;;10.07;;
52730;SDS011;38624;53.242;6.974;2022-11-20T07:12:50;15.30;;;9.93;;
52730;SDS011;38624;53.242;6.974;2022-11-20T07:15:17;14.27;;;9.45;;
52730;SDS011;38624;53.242;6.974;2022-11-20T07:17:44;14.47;;;9.73;;
52730;SDS011;38624;53.242;6.974;2022-11-20T07:20:10;15.00;;;10.63;;
52730;SDS011;38624;53.242;6.974;2022-11-20T07:22:36;16.20;;;10.83;;
52730;SDS011;38624;53.242;6.974;2022-11-20T07:25:02;16.77;;;10.17;;
52730;SDS011;38624;53.242;6.974;2022-11-20T07:27:29;16.00;;;10.20;;
52730;SDS011;38624;53.242;6.974;2022-11-20T07:29:55;16.17;;;10.40;;
52730;SDS011;38624;53.242;6.974;2022-11-20T07:32:21;16.40;;;10.30;;
52730;SDS011;38624;53.242;6.974;2022-11-20T07:34:46;16.57;;;10.50;;
52730;SDS011;38624;53.242;6.974;2022-11-20T07:37:13;15.20;;;10.47;;
52730;SDS011;38624;53.242;6.974;2022-11-20T07:39:39;19.20;;;11.10;;
52730;SDS011;38624;53.242;6.974;2022-11-20T07:42:05;16.43;;;11.27;;
52730;SDS011;38624;53.242;6.974;2022-11-20T07:44:32;18.80;;;11.17;;
52730;SDS011;38624;53.242;6.974;2022-11-20T07:46:58;16.70;;;11.00;;
52730;SDS011;38624;53.242;6.974;2022-11-20T07:49:23;17.33;;;10.97;;
52730;SDS011;38624;53.242;6.974;2022-11-20T07:51:52;14.87;;;10.53;;
52730;SDS011;38624;53.242;6.974;2022-11-20T07:54:19;18.43;;;9.97;;
52730;SDS011;38624;53.242;6.974;2022-11-20T07:56:45;14.60;;;10.05;;
52730;SDS011;38624;53.242;6.974;2022-11-20T07:59:11;15.93;;;10.27;;
52730;SDS011;38624;53.242;6.974;2022-11-20T08:01:37;15.37;;;9.80;;
52730;SDS011;38624;53.242;6.974;2022-11-20T08:04:04;16.17;;;10.05;;
52730;SDS011;38624;53.242;6.974;2022-11-20T08:06:29;16.97;;;10.43;;
52730;SDS011;38624;53.242;6.974;2022-11-20T08:08:55;15.30;;;10.53;;
52730;SDS011;38624;53.242;6.974;2022-11-20T08:11:21;15.83;;;10.60;;
52730;SDS011;38624;53.242;6.974;2022-11-20T08:14:05;17.30;;;10.40;;
52730;SDS011;38624;53.242;6.974;2022-11-20T08:16:36;14.73;;;10.30;;
52730;SDS011;38624;53.242;6.974;2022-11-20T08:19:03;15.85;;;10.48;;
52730;SDS011;38624;53.242;6.974;2022-11-20T08:21:29;17.33;;;10.93;;
52730;SDS011;38624;53.242;6.974;2022-11-20T08:23:56;17.75;;;10.77;;
52730;SDS011;38624;53.242;6.974;2022-11-20T08:26:22;16.88;;;11.23;;
52730;SDS011;38624;53.242;6.974;2022-11-20T08:28:48;17.50;;;11.23;;
52730;SDS011;38624;53.242;6.974;2022-11-20T08:31:14;18.40;;;11.33;;
52730;SDS011;38624;53.242;6.974;2022-11-20T08:33:40;18.13;;;10.60;;
52730;SDS011;38624;53.242;6.974;2022-11-20T08:36:06;15.43;;;10.53;;
52730;SDS011;38624;53.242;6.974;2022-11-20T08:38:32;16.93;;;10.30;;
52730;SDS011;38624;53.242;6.974;2022-11-20T08:40:58;15.97;;;10.20;;
52730;SDS011;38624;53.242;6.974;2022-11-20T08:43:43;14.97;;;9.77;;
52730;SDS011;38624;53.242;6.974;2022-11-20T08:46:09;15.30;;;10.47;;
52730;SDS011;38624;53.242;6.974;2022-11-20T08:48:35;16.33;;;10.23;;
52730;SDS011;38624;53.242;6.974;2022-11-20T08:51:01;14.90;;;10.13;;
52730;SDS011;38624;53.242;6.974;2022-11-20T08:53:27;15.27;;;9.67;;
52730;SDS011;38624;53.242;6.974;2022-11-20T08:55:53;14.87;;;9.70;;
52730;SDS011;38624;53.242;6.974;2022-11-20T08:58:18;14.80;;;10.60;;
52730;SDS011;38624;53.242;6.974;2022-11-20T09:00:44;14.97;;;10.03;;
52730;SDS011;38624;53.242;6.974;2022-11-20T09:03:09;14.20;;;9.23;;
52730;SDS011;38624;53.242;6.974;2022-11-20T09:05:35;15.07;;;10.13;;
52730;SDS011;38624;53.242;6.974;2022-11-20T09:08:01;13.57;;;9.03;;
52730;SDS011;38624;53.242;6.974;2022-11-20T09:10:27;14.63;;;9.03;;
52730;SDS011;38624;53.242;6.974;2022-11-20T09:12:53;12.33;;;7.43;;
52730;SDS011;38624;53.242;6.974;2022-11-20T09:17:56;12.53;;;7.67;;
52730;SDS011;38624;53.242;6.974;2022-11-20T09:20:23;13.93;;;8.35;;
52730;SDS011;38624;53.242;6.974;2022-11-20T09:22:50;13.02;;;8.35;;
52730;SDS011;38624;53.242;6.974;2022-11-20T09:25:16;17.00;;;8.93;;
52730;SDS011;38624;53.242;6.974;2022-11-20T09:27:42;13.23;;;8.20;;
52730;SDS011;38624;53.242;6.974;2022-11-20T09:30:10;13.07;;;8.20;;
52730;SDS011;38624;53.242;6.974;2022-11-20T09:35:10;12.00;;;6.80;;
52730;SDS011;38624;53.242;6.974;2022-11-20T09:37:36;11.23;;;6.57;;
52730;SDS011;38624;53.242;6.974;2022-11-20T09:40:02;8.57;;;5.57;;
52730;SDS011;38624;53.242;6.974;2022-11-20T09:45:13;10.30;;;5.23;;
52730;SDS011;38624;53.242;6.974;2022-11-20T09:51:08;6.70;;;4.80;;
52730;SDS011;38624;53.242;6.974;2022-11-20T09:56:14;7.47;;;4.07;;
52730;SDS011;38624;53.242;6.974;2022-11-20T09:58:47;7.20;;;4.83;;
52730;SDS011;38624;53.242;6.974;2022-11-20T10:01:17;5.87;;;3.90;;
52730;SDS011;38624;53.242;6.974;2022-11-20T10:09:43;6.88;;;4.70;;
52730;SDS011;38624;53.242;6.974;2022-11-20T10:23:45;14.27;;;8.70;;
52730;SDS011;38624;53.242;6.974;2022-11-20T10:26:31;14.25;;;8.75;;
52730;SDS011;38624;53.242;6.974;2022-11-20T10:29:32;13.17;;;8.70;;
52730;SDS011;38624;53.242;6.974;2022-11-20T10:32:01;11.87;;;8.03;;
52730;SDS011;38624;53.242;6.974;2022-11-20T10:34:43;13.40;;;8.07;;
52730;SDS011;38624;53.242;6.974;2022-11-20T10:37:25;14.70;;;9.93;;
52730;SDS011;38624;53.242;6.974;2022-11-20T10:42:43;13.27;;;8.70;;
52730;SDS011;38624;53.242;6.974;2022-11-20T10:47:49;11.65;;;8.00;;
52730;SDS011;38624;53.242;6.974;2022-11-20T10:50:17;12.68;;;8.93;;
52730;SDS011;38624;53.242;6.974;2022-11-20T10:55:42;12.77;;;8.30;;
52730;SDS011;38624;53.242;6.974;2022-11-20T10:58:14;11.57;;;8.00;;
52730;SDS011;38624;53.242;6.974;2022-11-20T11:01:17;12.27;;;8.03;;
52730;SDS011;38624;53.242;6.974;2022-11-20T11:03:46;12.37;;;6.87;;
52730;SDS011;38624;53.242;6.974;2022-11-20T11:09:10;11.57;;;7.50;;
52730;SDS011;38624;53.242;6.974;2022-11-20T11:11:44;11.03;;;7.57;;
52730;SDS011;38624;53.242;6.974;2022-11-20T11:14:11;10.13;;;7.03;;
52730;SDS011;38624;53.242;6.974;2022-11-20T11:16:54;11.23;;;7.70;;
52730;SDS011;38624;53.242;6.974;2022-11-20T11:19:22;10.83;;;7.10;;
52730;SDS011;38624;53.242;6.974;2022-11-20T11:21:52;13.38;;;7.28;;
52730;SDS011;38624;53.242;6.974;2022-11-20T11:24:21;11.70;;;7.20;;
52730;SDS011;38624;53.242;6.974;2022-11-20T11:27:02;13.27;;;7.67;;
52730;SDS011;38624;53.242;6.974;2022-11-20T11:29:31;10.77;;;7.17;;
52730;SDS011;38624;53.242;6.974;2022-11-20T11:32:07;10.60;;;7.32;;
52730;SDS011;38624;53.242;6.974;2022-11-20T11:34:42;11.50;;;7.77;;
52730;SDS011;38624;53.242;6.974;2022-11-20T11:37:18;11.40;;;7.87;;
52730;SDS011;38624;53.242;6.974;2022-11-20T11:39:49;13.33;;;8.77;;
52730;SDS011;38624;53.242;6.974;2022-11-20T11:42:18;13.83;;;8.97;;
52730;SDS011;38624;53.242;6.974;2022-11-20T11:44:45;13.75;;;9.45;;
52730;SDS011;38624;53.242;6.974;2022-11-20T11:47:51;16.38;;;11.18;;
52730;SDS011;38624;53.242;6.974;2022-11-20T11:50:19;15.75;;;11.00;;
52730;SDS011;38624;53.242;6.974;2022-11-20T11:55:21;17.05;;;10.93;;
52730;SDS011;38624;53.242;6.974;2022-11-20T11:57:55;14.55;;;10.43;;
52730;SDS011;38624;53.242;6.974;2022-11-20T12:01:07;16.08;;;10.90;;
52730;SDS011;38624;53.242;6.974;2022-11-20T12:04:04;13.80;;;9.70;;
52730;SDS011;38624;53.242;6.974;2022-11-20T12:06:53;17.55;;;9.77;;
52730;SDS011;38624;53.242;6.974;2022-11-20T12:09:27;14.45;;;9.98;;
52730;SDS011;38624;53.242;6.974;2022-11-20T12:12:15;15.00;;;9.73;;
52730;SDS011;38624;53.242;6.974;2022-11-20T12:14:46;14.87;;;9.97;;
52730;SDS011;38624;53.242;6.974;2022-11-20T12:17:16;18.83;;;10.90;;
52730;SDS011;38624;53.242;6.974;2022-11-20T12:19:42;13.27;;;10.00;;
52730;SDS011;38624;53.242;6.974;2022-11-20T12:24:55;13.13;;;8.17;;
52730;SDS011;38624;53.242;6.974;2022-11-20T12:27:39;12.73;;;8.77;;
52730;SDS011;38624;53.242;6.974;2022-11-20T12:30:15;13.40;;;8.47;;
52730;SDS011;38624;53.242;6.974;2022-11-20T12:32:52;11.97;;;8.07;;
52730;SDS011;38624;53.242;6.974;2022-11-20T12:43:21;11.65;;;7.93;;
52730;SDS011;38624;53.242;6.974;2022-11-20T13:07:42;10.50;;;6.63;;
52730;SDS011;38624;53.242;6.974;2022-11-20T13:10:13;9.40;;;6.63;;
52730;SDS011;38624;53.242;6.974;2022-11-20T13:12:54;8.85;;;5.85;;
52730;SDS011;38624;53.242;6.974;2022-11-20T13:18:08;9.87;;;5.83;;
52730;SDS011;38624;53.242;6.974;2022-11-20T13:20:36;10.55;;;7.15;;
52730;SDS011;38624;53.242;6.974;2022-11-20T13:23:07;9.47;;;6.50;;
52730;SDS011;38624;53.242;6.974;2022-11-20T13:28:03;14.75;;;6.45;;
52730;SDS011;38624;53.242;6.974;2022-11-20T13:30:50;8.50;;;5.93;;
52730;SDS011;38624;53.242;6.974;2022-11-20T13:33:34;9.50;;;6.10;;
52730;SDS011;38624;53.242;6.974;2022-11-20T13:38:46;7.77;;;5.77;;
52730;SDS011;38624;53.242;6.974;2022-11-20T13:41:22;8.90;;;6.00;;
52730;SDS011;38624;53.242;6.974;2022-11-20T13:44:21;8.07;;;5.82;;
52730;SDS011;38624;53.242;6.974;2022-11-20T13:46:55;7.93;;;5.50;;
52730;SDS011;38624;53.242;6.974;2022-11-20T13:49:29;8.83;;;5.10;;
52730;SDS011;38624;53.242;6.974;2022-11-20T13:57:47;6.75;;;4.43;;
52730;SDS011;38624;53.242;6.974;2022-11-20T14:00:16;6.85;;;4.50;;
52730;SDS011;38624;53.242;6.974;2022-11-20T14:02:43;5.93;;;4.38;;
52730;SDS011;38624;53.242;6.974;2022-11-20T14:05:22;6.13;;;4.53;;
52730;SDS011;38624;53.242;6.974;2022-11-20T14:07:49;8.55;;;4.50;;
52730;SDS011;38624;53.242;6.974;2022-11-20T14:10:19;7.85;;;4.60;;
52730;SDS011;38624;53.242;6.974;2022-11-20T14:12:47;6.18;;;4.40;;
52730;SDS011;38624;53.242;6.974;2022-11-20T14:15:34;7.75;;;4.47;;
52730;SDS011;38624;53.242;6.974;2022-11-20T14:18:00;6.40;;;4.90;;
52730;SDS011;38624;53.242;6.974;2022-11-20T14:20:37;6.00;;;4.38;;
52730;SDS011;38624;53.242;6.974;2022-11-20T14:23:03;6.97;;;4.60;;
52730;SDS011;38624;53.242;6.974;2022-11-20T14:25:30;7.75;;;5.43;;
52730;SDS011;38624;53.242;6.974;2022-11-20T14:28:00;8.60;;;5.50;;
52730;SDS011;38624;53.242;6.974;2022-11-20T14:30:28;7.90;;;5.10;;
52730;SDS011;38624;53.242;6.974;2022-11-20T14:33:03;8.88;;;5.57;;
52730;SDS011;38624;53.242;6.974;2022-11-20T14:38:00;8.63;;;5.57;;
52730;SDS011;38624;53.242;6.974;2022-11-20T14:40:28;7.57;;;5.43;;
52730;SDS011;38624;53.242;6.974;2022-11-20T14:42:54;7.57;;;5.63;;
52730;SDS011;38624;53.242;6.974;2022-11-20T14:45:20;9.15;;;5.63;;
52730;SDS011;38624;53.242;6.974;2022-11-20T14:47:46;8.90;;;5.65;;
52730;SDS011;38624;53.242;6.974;2022-11-20T14:50:22;7.72;;;5.65;;
52730;SDS011;38624;53.242;6.974;2022-11-20T14:52:54;9.02;;;5.90;;
52730;SDS011;38624;53.242;6.974;2022-11-20T14:55:25;7.27;;;5.40;;
52730;SDS011;38624;53.242;6.974;2022-11-20T14:57:59;9.03;;;5.97;;
52730;SDS011;38624;53.242;6.974;2022-11-20T15:00:30;9.52;;;5.45;;
52730;SDS011;38624;53.242;6.974;2022-11-20T15:05:24;8.87;;;6.00;;
52730;SDS011;38624;53.242;6.974;2022-11-20T15:08:05;9.03;;;5.87;;
52730;SDS011;38624;53.242;6.974;2022-11-20T15:10:32;8.20;;;5.77;;
52730;SDS011;38624;53.242;6.974;2022-11-20T15:13:05;7.72;;;5.50;;
52730;SDS011;38624;53.242;6.974;2022-11-20T15:18:14;7.87;;;6.00;;
52730;SDS011;38624;53.242;6.974;2022-11-20T15:20:45;7.17;;;5.23;;
52730;SDS011;38624;53.242;6.974;2022-11-20T15:23:12;9.03;;;6.03;;
52730;SDS011;38624;53.242;6.974;2022-11-20T15:25:40;9.00;;;5.87;;
52730;SDS011;38624;53.242;6.974;2022-11-20T15:28:13;9.65;;;6.22;;
52730;SDS011;38624;53.242;6.974;2022-11-20T15:30:43;8.70;;;6.25;;
52730;SDS011;38624;53.242;6.974;2022-11-20T15:33:10;9.95;;;6.53;;
52730;SDS011;38624;53.242;6.974;2022-11-20T15:35:36;10.53;;;6.60;;
52730;SDS011;38624;53.242;6.974;2022-11-20T15:38:01;9.77;;;6.87;;
52730;SDS011;38624;53.242;6.974;2022-11-20T15:40:27;9.67;;;6.53;;
52730;SDS011;38624;53.242;6.974;2022-11-20T15:42:53;9.93;;;6.70;;
52730;SDS011;38624;53.242;6.974;2022-11-20T15:45:28;10.17;;;7.20;;
52730;SDS011;38624;53.242;6.974;2022-11-20T15:47:57;10.33;;;7.33;;
52730;SDS011;38624;53.242;6.974;2022-11-20T15:50:25;9.02;;;6.63;;
52730;SDS011;38624;53.242;6.974;2022-11-20T15:52:55;12.23;;;7.80;;
52730;SDS011;38624;53.242;6.974;2022-11-20T15:55:20;11.27;;;7.57;;
52730;SDS011;38624;53.242;6.974;2022-11-20T15:57:46;11.90;;;7.50;;
52730;SDS011;38624;53.242;6.974;2022-11-20T16:00:12;11.60;;;8.20;;
52730;SDS011;38624;53.242;6.974;2022-11-20T16:02:38;12.45;;;7.22;;
52730;SDS011;38624;53.242;6.974;2022-11-20T16:05:03;9.83;;;7.13;;
52730;SDS011;38624;53.242;6.974;2022-11-20T16:07:34;11.20;;;7.53;;
52730;SDS011;38624;53.242;6.974;2022-11-20T16:10:00;10.73;;;7.63;;
52730;SDS011;38624;53.242;6.974;2022-11-20T16:12:26;11.93;;;7.60;;
52730;SDS011;38624;53.242;6.974;2022-11-20T16:15:10;11.35;;;7.97;;
52730;SDS011;38624;53.242;6.974;2022-11-20T16:17:54;9.97;;;7.33;;
52730;SDS011;38624;53.242;6.974;2022-11-20T16:20:20;10.60;;;7.57;;
52730;SDS011;38624;53.242;6.974;2022-11-20T16:22:46;9.60;;;7.50;;
52730;SDS011;38624;53.242;6.974;2022-11-20T16:25:11;12.33;;;7.43;;
52730;SDS011;38624;53.242;6.974;2022-11-20T16:27:37;10.53;;;7.77;;
52730;SDS011;38624;53.242;6.974;2022-11-20T16:30:03;11.00;;;7.23;;